Flight Track Log - Related Links

Times and Time Zones

All times are in EDT time to prevent confusion due to time zone crossing. See the LIA565 flight status page for this flight to view local times or setup timezone preferences in your user account.

Time Position Orientation Groundspeed Altitude Reporting Facility
EDT Latitude Longitude Course Direction KTS MPH feet Rate Location/Type
Fri 05:11:00 PM 14.8198 -60.7631 144° Southeast  Level Estimated
Fri 05:12:00 PM 14.7470 -60.7096 145° Southeast  Level Estimated
Fri 05:13:00 PM 14.6742 -60.6561 145° Southeast  Level Estimated
Fri 05:14:00 PM 14.6014 -60.6027 145° Southeast  Level Estimated
Fri 05:15:00 PM 14.5285 -60.5493 145° Southeast  Level Estimated
Fri 05:16:00 PM 14.4557 -60.4960 145° Southeast  Level Estimated
Fri 05:17:00 PM 14.3828 -60.4427 145° Southeast  Level Estimated
Fri 05:18:00 PM 14.3100 -60.3894 145° Southeast  Level Estimated
Fri 05:19:00 PM 14.2371 -60.3361 145° Southeast  Level Estimated
Fri 05:20:00 PM 14.1642 -60.2829 145° Southeast  Level Estimated
Fri 05:21:00 PM 14.0913 -60.2297 145° Southeast  Level Estimated
Fri 05:22:00 PM 14.0184 -60.1766 145° Southeast  Level Estimated
Fri 05:23:00 PM 13.9454 -60.1235 145° Southeast  Level Estimated
Fri 05:24:00 PM 13.8725 -60.0704 145° Southeast  Level Estimated
Fri 05:25:00 PM 13.7996 -60.0174 145° Southeast  Level Estimated
Fri 05:26:00 PM 13.7266 -59.9644 145° Southeast  Level Estimated
Fri 05:27:00 PM 13.6536 -59.9114 145° Southeast  Level Estimated
Fri 05:28:00 PM 13.5807 -59.8584 145° Southeast  Level Estimated
Fri 05:29:00 PM 13.5077 -59.8055 145° Southeast  Level Estimated
Fri 05:30:00 PM 13.4347 -59.7527 145° Southeast  Level Estimated
Fri 05:31:00 PM 13.3616 -59.6998 145° Southeast  Level Estimated
Fri 05:32:00 PM 13.2886 -59.6470 145° Southeast  Level Estimated
Fri 05:33:00 PM 13.2156 -59.5942 145° Southeast  Level Estimated
Fri 05:34:00 PM 13.1425 -59.5415 145° Southeast  Level Estimated
Fri 05:35:00 PM 13.0746 -59.4925 145° Southeast  Level Estimated
Fri 05:36:00 PM 13.0746 -59.4925 52° Northeast  Level Estimated
Fri 05:37:00 PM 13.0746 -59.4925 52° Northeast  Level Estimated
Fri 05:38:00 PM 13.0746 -59.4925 52° Northeast  Level Estimated
Fri 05:39:00 PM 13.0746 -59.4925 52° Northeast  Level Estimated
Fri 05:40:00 PM 13.0746 -59.4925 52° Northeast  Level Estimated
Fri 05:41:00 PM 13.0746 -59.4925 52° Northeast  Level Estimated
Fri 05:42:00 PM 13.0746 -59.4925 52° Northeast  Level Estimated
Fri 05:43:00 PM 13.0746 -59.4925 52° Northeast  Level Estimated
Fri 05:44:00 PM 13.0746 -59.4925 52° Northeast  Level Estimated
Fri 05:45:00 PM 13.0746 -59.4925 52° Northeast  Level Estimated
Fri 05:46:00 PM 13.0746 -59.4925 52° Northeast  Level Estimated
Fri 05:47:00 PM 13.0746 -59.4925 52° Northeast  Level Estimated
Fri 05:48:00 PM 13.0746 -59.4925 52° Northeast  Level Estimated
Fri 05:49:00 PM 13.0746 -59.4925 52° Northeast  Level Estimated
Fri 05:50:00 PM 13.0746 -59.4925 52° Northeast  Level Estimated
Fri 05:51:00 PM 13.0746 -59.4925 52° Northeast  Level Estimated

Login

Don't have an account? Register now (free) for customized features, flight alerts, and more!